sensor_id;sensor_type;location;lat;lon;timestamp;P1;durP1;ratioP1;P2;durP2;ratioP2
64712;SDS011;51140;45.340;5.980;2023-09-19T00:02:01;10.85;;;2.97;;
64712;SDS011;51140;45.340;5.980;2023-09-19T00:04:30;8.18;;;3.08;;
64712;SDS011;51140;45.340;5.980;2023-09-19T00:06:57;9.07;;;2.78;;
64712;SDS011;51140;45.340;5.980;2023-09-19T00:09:23;10.05;;;2.80;;
64712;SDS011;51140;45.340;5.980;2023-09-19T00:11:52;10.43;;;3.90;;
64712;SDS011;51140;45.340;5.980;2023-09-19T00:14:17;9.23;;;2.97;;
64712;SDS011;51140;45.340;5.980;2023-09-19T00:16:43;11.02;;;2.63;;
64712;SDS011;51140;45.340;5.980;2023-09-19T00:19:08;20.80;;;3.22;;
64712;SDS011;51140;45.340;5.980;2023-09-19T00:21:34;10.85;;;2.83;;
64712;SDS011;51140;45.340;5.980;2023-09-19T00:24:03;12.38;;;3.03;;
64712;SDS011;51140;45.340;5.980;2023-09-19T00:26:32;8.60;;;2.60;;
64712;SDS011;51140;45.340;5.980;2023-09-19T00:28:57;7.78;;;2.75;;
64712;SDS011;51140;45.340;5.980;2023-09-19T00:31:29;9.55;;;2.75;;
64712;SDS011;51140;45.340;5.980;2023-09-19T00:33:55;10.93;;;3.45;;
64712;SDS011;51140;45.340;5.980;2023-09-19T00:36:22;8.02;;;2.90;;
64712;SDS011;51140;45.340;5.980;2023-09-19T00:38:48;10.30;;;3.30;;
64712;SDS011;51140;45.340;5.980;2023-09-19T00:41:13;150.25;;;9.40;;
64712;SDS011;51140;45.340;5.980;2023-09-19T00:43:38;202.75;;;11.80;;
64712;SDS011;51140;45.340;5.980;2023-09-19T00:46:05;17.70;;;5.03;;
64712;SDS011;51140;45.340;5.980;2023-09-19T00:48:31;15.48;;;5.28;;
64712;SDS011;51140;45.340;5.980;2023-09-19T00:51:02;9.38;;;4.80;;
64712;SDS011;51140;45.340;5.980;2023-09-19T00:53:29;12.23;;;5.07;;
64712;SDS011;51140;45.340;5.980;2023-09-19T00:55:55;9.57;;;4.65;;
64712;SDS011;51140;45.340;5.980;2023-09-19T00:58:21;8.60;;;3.92;;
64712;SDS011;51140;45.340;5.980;2023-09-19T01:00:50;12.57;;;4.18;;
64712;SDS011;51140;45.340;5.980;2023-09-19T01:03:17;16.70;;;3.53;;
64712;SDS011;51140;45.340;5.980;2023-09-19T01:05:43;9.40;;;3.75;;
64712;SDS011;51140;45.340;5.980;2023-09-19T01:08:08;10.38;;;3.40;;
64712;SDS011;51140;45.340;5.980;2023-09-19T01:10:36;9.38;;;3.58;;
64712;SDS011;51140;45.340;5.980;2023-09-19T01:13:47;10.13;;;3.83;;
64712;SDS011;51140;45.340;5.980;2023-09-19T01:19:18;9.15;;;3.58;;
64712;SDS011;51140;45.340;5.980;2023-09-19T01:30:35;10.45;;;2.55;;
64712;SDS011;51140;45.340;5.980;2023-09-19T01:33:05;8.35;;;3.00;;
64712;SDS011;51140;45.340;5.980;2023-09-19T01:35:32;7.68;;;3.13;;
64712;SDS011;51140;45.340;5.980;2023-09-19T01:37:59;11.23;;;3.28;;
64712;SDS011;51140;45.340;5.980;2023-09-19T01:40:24;11.77;;;3.60;;
64712;SDS011;51140;45.340;5.980;2023-09-19T01:42:54;11.73;;;4.05;;
64712;SDS011;51140;45.340;5.980;2023-09-19T01:51:37;9.00;;;3.00;;
64712;SDS011;51140;45.340;5.980;2023-09-19T01:54:16;7.82;;;2.97;;
64712;SDS011;51140;45.340;5.980;2023-09-19T01:56:50;8.75;;;2.85;;
64712;SDS011;51140;45.340;5.980;2023-09-19T01:59:28;9.90;;;3.70;;
64712;SDS011;51140;45.340;5.980;2023-09-19T02:02:00;11.30;;;2.78;;
64712;SDS011;51140;45.340;5.980;2023-09-19T02:04:27;9.48;;;3.05;;
64712;SDS011;51140;45.340;5.980;2023-09-19T02:06:53;13.55;;;4.15;;
64712;SDS011;51140;45.340;5.980;2023-09-19T02:09:19;16.13;;;4.03;;
64712;SDS011;51140;45.340;5.980;2023-09-19T02:11:44;14.98;;;5.43;;
64712;SDS011;51140;45.340;5.980;2023-09-19T02:14:09;13.93;;;5.00;;
64712;SDS011;51140;45.340;5.980;2023-09-19T02:16:35;23.98;;;6.00;;
64712;SDS011;51140;45.340;5.980;2023-09-19T02:19:00;22.25;;;5.93;;
64712;SDS011;51140;45.340;5.980;2023-09-19T02:21:30;15.52;;;5.60;;
64712;SDS011;51140;45.340;5.980;2023-09-19T02:23:56;14.38;;;5.40;;
64712;SDS011;51140;45.340;5.980;2023-09-19T02:26:21;9.75;;;3.90;;
64712;SDS011;51140;45.340;5.980;2023-09-19T02:28:49;6.53;;;2.85;;
64712;SDS011;51140;45.340;5.980;2023-09-19T02:31:15;9.48;;;2.80;;
64712;SDS011;51140;45.340;5.980;2023-09-19T02:33:41;5.95;;;2.60;;
64712;SDS011;51140;45.340;5.980;2023-09-19T02:36:07;13.25;;;2.90;;
64712;SDS011;51140;45.340;5.980;2023-09-19T02:38:33;6.90;;;2.72;;
64712;SDS011;51140;45.340;5.980;2023-09-19T02:40:59;7.95;;;2.80;;
64712;SDS011;51140;45.340;5.980;2023-09-19T02:43:25;10.05;;;2.70;;
64712;SDS011;51140;45.340;5.980;2023-09-19T02:45:51;12.07;;;2.47;;
64712;SDS011;51140;45.340;5.980;2023-09-19T02:48:18;7.65;;;2.88;;
64712;SDS011;51140;45.340;5.980;2023-09-19T02:50:43;11.35;;;2.88;;
64712;SDS011;51140;45.340;5.980;2023-09-19T02:53:09;7.32;;;3.10;;
64712;SDS011;51140;45.340;5.980;2023-09-19T02:55:37;8.70;;;3.00;;
64712;SDS011;51140;45.340;5.980;2023-09-19T02:58:05;8.23;;;3.13;;
64712;SDS011;51140;45.340;5.980;2023-09-19T03:00:32;9.52;;;2.33;;
64712;SDS011;51140;45.340;5.980;2023-09-19T03:03:02;6.15;;;2.50;;
64712;SDS011;51140;45.340;5.980;2023-09-19T03:05:27;10.85;;;2.80;;
64712;SDS011;51140;45.340;5.980;2023-09-19T03:07:56;9.95;;;2.75;;
64712;SDS011;51140;45.340;5.980;2023-09-19T03:10:22;9.20;;;3.03;;
64712;SDS011;51140;45.340;5.980;2023-09-19T03:12:48;7.97;;;2.65;;
64712;SDS011;51140;45.340;5.980;2023-09-19T03:15:14;9.45;;;2.67;;
64712;SDS011;51140;45.340;5.980;2023-09-19T03:17:44;6.80;;;2.72;;
64712;SDS011;51140;45.340;5.980;2023-09-19T03:20:10;8.68;;;2.80;;
64712;SDS011;51140;45.340;5.980;2023-09-19T03:22:38;9.35;;;2.58;;
64712;SDS011;51140;45.340;5.980;2023-09-19T03:25:05;11.07;;;2.80;;
64712;SDS011;51140;45.340;5.980;2023-09-19T03:27:33;11.00;;;2.65;;
64712;SDS011;51140;45.340;5.980;2023-09-19T03:29:59;6.90;;;2.50;;
64712;SDS011;51140;45.340;5.980;2023-09-19T03:32:25;10.30;;;2.63;;
64712;SDS011;51140;45.340;5.980;2023-09-19T03:34:51;9.05;;;2.50;;
64712;SDS011;51140;45.340;5.980;2023-09-19T03:37:17;8.50;;;2.45;;
64712;SDS011;51140;45.340;5.980;2023-09-19T03:39:43;12.07;;;2.55;;
64712;SDS011;51140;45.340;5.980;2023-09-19T03:42:08;8.60;;;2.90;;
64712;SDS011;51140;45.340;5.980;2023-09-19T03:44:34;12.13;;;2.60;;
64712;SDS011;51140;45.340;5.980;2023-09-19T03:46:59;8.80;;;2.78;;
64712;SDS011;51140;45.340;5.980;2023-09-19T03:49:25;6.70;;;2.25;;
64712;SDS011;51140;45.340;5.980;2023-09-19T03:51:50;7.78;;;2.90;;
64712;SDS011;51140;45.340;5.980;2023-09-19T03:54:15;18.80;;;3.05;;
64712;SDS011;51140;45.340;5.980;2023-09-19T03:56:42;22.92;;;3.45;;
64712;SDS011;51140;45.340;5.980;2023-09-19T03:59:08;9.63;;;2.78;;
64712;SDS011;51140;45.340;5.980;2023-09-19T04:01:34;10.45;;;3.03;;
64712;SDS011;51140;45.340;5.980;2023-09-19T04:04:00;14.07;;;2.75;;
64712;SDS011;51140;45.340;5.980;2023-09-19T04:06:33;14.63;;;2.83;;
64712;SDS011;51140;45.340;5.980;2023-09-19T04:09:02;10.35;;;2.70;;
64712;SDS011;51140;45.340;5.980;2023-09-19T04:11:28;10.07;;;2.72;;
64712;SDS011;51140;45.340;5.980;2023-09-19T04:13:55;8.40;;;2.65;;
64712;SDS011;51140;45.340;5.980;2023-09-19T04:16:20;10.20;;;2.90;;
64712;SDS011;51140;45.340;5.980;2023-09-19T04:18:46;12.82;;;2.80;;
64712;SDS011;51140;45.340;5.980;2023-09-19T04:21:11;9.65;;;2.63;;
64712;SDS011;51140;45.340;5.980;2023-09-19T04:23:36;11.43;;;2.83;;
64712;SDS011;51140;45.340;5.980;2023-09-19T04:26:02;9.90;;;2.60;;
64712;SDS011;51140;45.340;5.980;2023-09-19T04:28:29;6.43;;;2.33;;
64712;SDS011;51140;45.340;5.980;2023-09-19T04:30:56;5.53;;;2.50;;
64712;SDS011;51140;45.340;5.980;2023-09-19T04:33:21;11.65;;;2.83;;
64712;SDS011;51140;45.340;5.980;2023-09-19T04:35:48;7.90;;;2.72;;
64712;SDS011;51140;45.340;5.980;2023-09-19T04:38:15;10.20;;;2.70;;
64712;SDS011;51140;45.340;5.980;2023-09-19T04:40:41;6.88;;;2.33;;
64712;SDS011;51140;45.340;5.980;2023-09-19T04:43:06;7.40;;;2.53;;
64712;SDS011;51140;45.340;5.980;2023-09-19T04:45:32;9.07;;;3.25;;
64712;SDS011;51140;45.340;5.980;2023-09-19T04:47:58;7.75;;;2.65;;
64712;SDS011;51140;45.340;5.980;2023-09-19T04:50:23;8.10;;;2.90;;
64712;SDS011;51140;45.340;5.980;2023-09-19T04:52:52;10.23;;;3.03;;
64712;SDS011;51140;45.340;5.980;2023-09-19T04:55:19;7.97;;;2.60;;
64712;SDS011;51140;45.340;5.980;2023-09-19T05:00:14;6.82;;;2.17;;
64712;SDS011;51140;45.340;5.980;2023-09-19T05:02:42;7.85;;;2.70;;
64712;SDS011;51140;45.340;5.980;2023-09-19T05:05:08;11.95;;;2.53;;
64712;SDS011;51140;45.340;5.980;2023-09-19T05:07:41;8.80;;;2.60;;
64712;SDS011;51140;45.340;5.980;2023-09-19T05:10:07;8.40;;;2.75;;
64712;SDS011;51140;45.340;5.980;2023-09-19T05:12:33;8.07;;;2.95;;
64712;SDS011;51140;45.340;5.980;2023-09-19T05:15:00;9.35;;;2.83;;
64712;SDS011;51140;45.340;5.980;2023-09-19T05:17:26;8.52;;;2.65;;
64712;SDS011;51140;45.340;5.980;2023-09-19T05:19:52;10.80;;;3.20;;
64712;SDS011;51140;45.340;5.980;2023-09-19T05:22:17;9.57;;;3.15;;
64712;SDS011;51140;45.340;5.980;2023-09-19T05:24:43;10.00;;;3.42;;
64712;SDS011;51140;45.340;5.980;2023-09-19T05:27:09;14.02;;;3.75;;
64712;SDS011;51140;45.340;5.980;2023-09-19T05:29:35;9.43;;;3.80;;
64712;SDS011;51140;45.340;5.980;2023-09-19T05:32:01;12.13;;;5.38;;
64712;SDS011;51140;45.340;5.980;2023-09-19T05:34:26;13.00;;;4.53;;
64712;SDS011;51140;45.340;5.980;2023-09-19T05:36:55;10.65;;;4.28;;
64712;SDS011;51140;45.340;5.980;2023-09-19T05:39:20;11.20;;;4.85;;
64712;SDS011;51140;45.340;5.980;2023-09-19T05:41:46;11.52;;;4.38;;
64712;SDS011;51140;45.340;5.980;2023-09-19T05:44:12;9.45;;;4.35;;
64712;SDS011;51140;45.340;5.980;2023-09-19T05:46:39;9.95;;;3.72;;
64712;SDS011;51140;45.340;5.980;2023-09-19T05:49:04;8.90;;;3.70;;
64712;SDS011;51140;45.340;5.980;2023-09-19T05:51:30;7.13;;;3.83;;
64712;SDS011;51140;45.340;5.980;2023-09-19T05:53:55;11.13;;;3.50;;
64712;SDS011;51140;45.340;5.980;2023-09-19T05:56:21;8.95;;;3.78;;
64712;SDS011;51140;45.340;5.980;2023-09-19T05:58:46;6.85;;;3.00;;
64712;SDS011;51140;45.340;5.980;2023-09-19T06:01:12;8.82;;;3.20;;
64712;SDS011;51140;45.340;5.980;2023-09-19T06:03:38;7.47;;;3.03;;
64712;SDS011;51140;45.340;5.980;2023-09-19T06:06:03;7.80;;;3.20;;
64712;SDS011;51140;45.340;5.980;2023-09-19T06:08:31;8.82;;;2.80;;
64712;SDS011;51140;45.340;5.980;2023-09-19T06:10:59;7.22;;;2.67;;
64712;SDS011;51140;45.340;5.980;2023-09-19T06:13:25;9.73;;;3.13;;
64712;SDS011;51140;45.340;5.980;2023-09-19T06:15:52;6.18;;;2.90;;
64712;SDS011;51140;45.340;5.980;2023-09-19T06:18:18;10.43;;;2.55;;
64712;SDS011;51140;45.340;5.980;2023-09-19T06:20:48;10.00;;;2.80;;
64712;SDS011;51140;45.340;5.980;2023-09-19T06:23:16;6.70;;;2.67;;
64712;SDS011;51140;45.340;5.980;2023-09-19T06:25:42;7.60;;;2.78;;
64712;SDS011;51140;45.340;5.980;2023-09-19T06:28:08;11.40;;;2.95;;
64712;SDS011;51140;45.340;5.980;2023-09-19T06:30:37;8.07;;;2.65;;
64712;SDS011;51140;45.340;5.980;2023-09-19T06:33:05;9.25;;;2.67;;
64712;SDS011;51140;45.340;5.980;2023-09-19T06:35:32;9.45;;;3.05;;
64712;SDS011;51140;45.340;5.980;2023-09-19T06:37:58;7.50;;;2.90;;
64712;SDS011;51140;45.340;5.980;2023-09-19T06:40:24;10.60;;;3.30;;
64712;SDS011;51140;45.340;5.980;2023-09-19T06:42:52;10.75;;;3.25;;
64712;SDS011;51140;45.340;5.980;2023-09-19T06:45:19;11.48;;;4.13;;
64712;SDS011;51140;45.340;5.980;2023-09-19T06:47:48;9.02;;;3.97;;
64712;SDS011;51140;45.340;5.980;2023-09-19T06:50:15;7.85;;;3.63;;
64712;SDS011;51140;45.340;5.980;2023-09-19T06:52:44;10.45;;;4.35;;
64712;SDS011;51140;45.340;5.980;2023-09-19T06:55:11;8.55;;;3.85;;
64712;SDS011;51140;45.340;5.980;2023-09-19T06:57:38;10.10;;;4.10;;
64712;SDS011;51140;45.340;5.980;2023-09-19T07:00:05;9.23;;;3.42;;
64712;SDS011;51140;45.340;5.980;2023-09-19T07:02:41;10.82;;;4.65;;
64712;SDS011;51140;45.340;5.980;2023-09-19T07:05:06;9.80;;;4.43;;
64712;SDS011;51140;45.340;5.980;2023-09-19T07:07:32;12.73;;;5.50;;
64712;SDS011;51140;45.340;5.980;2023-09-19T07:10:00;9.43;;;4.75;;
64712;SDS011;51140;45.340;5.980;2023-09-19T07:12:30;11.35;;;5.68;;
64712;SDS011;51140;45.340;5.980;2023-09-19T07:14:57;13.35;;;5.90;;
64712;SDS011;51140;45.340;5.980;2023-09-19T07:17:23;11.65;;;6.10;;
64712;SDS011;51140;45.340;5.980;2023-09-19T07:19:49;8.88;;;5.45;;
64712;SDS011;51140;45.340;5.980;2023-09-19T07:22:15;11.27;;;6.38;;
64712;SDS011;51140;45.340;5.980;2023-09-19T07:24:40;11.35;;;6.22;;
64712;SDS011;51140;45.340;5.980;2023-09-19T07:27:06;13.02;;;5.32;;
64712;SDS011;51140;45.340;5.980;2023-09-19T07:29:31;9.55;;;4.95;;
64712;SDS011;51140;45.340;5.980;2023-09-19T07:31:57;10.35;;;5.15;;
64712;SDS011;51140;45.340;5.980;2023-09-19T07:34:22;10.05;;;5.25;;
64712;SDS011;51140;45.340;5.980;2023-09-19T07:36:49;12.38;;;5.18;;
64712;SDS011;51140;45.340;5.980;2023-09-19T07:39:15;12.60;;;5.15;;
64712;SDS011;51140;45.340;5.980;2023-09-19T07:41:40;11.60;;;5.13;;
64712;SDS011;51140;45.340;5.980;2023-09-19T07:44:07;10.65;;;5.13;;
64712;SDS011;51140;45.340;5.980;2023-09-19T07:46:32;12.38;;;5.32;;
64712;SDS011;51140;45.340;5.980;2023-09-19T07:48:58;11.38;;;5.32;;
64712;SDS011;51140;45.340;5.980;2023-09-19T07:51:23;11.48;;;6.20;;
64712;SDS011;51140;45.340;5.980;2023-09-19T07:53:49;14.35;;;5.57;;
64712;SDS011;51140;45.340;5.980;2023-09-19T07:56:14;11.68;;;4.90;;
64712;SDS011;51140;45.340;5.980;2023-09-19T07:58:40;10.95;;;5.00;;
64712;SDS011;51140;45.340;5.980;2023-09-19T08:01:09;8.55;;;5.10;;
64712;SDS011;51140;45.340;5.980;2023-09-19T08:03:36;13.00;;;5.03;;
64712;SDS011;51140;45.340;5.980;2023-09-19T08:06:09;9.70;;;4.90;;
64712;SDS011;51140;45.340;5.980;2023-09-19T08:08:35;10.32;;;4.70;;
64712;SDS011;51140;45.340;5.980;2023-09-19T08:11:04;8.25;;;4.35;;
64712;SDS011;51140;45.340;5.980;2023-09-19T08:13:37;10.05;;;5.35;;
64712;SDS011;51140;45.340;5.980;2023-09-19T08:16:09;8.82;;;4.13;;
64712;SDS011;51140;45.340;5.980;2023-09-19T08:18:35;9.27;;;4.45;;
64712;SDS011;51140;45.340;5.980;2023-09-19T08:21:02;12.45;;;5.28;;
64712;SDS011;51140;45.340;5.980;2023-09-19T08:23:27;9.60;;;5.40;;
64712;SDS011;51140;45.340;5.980;2023-09-19T08:25:57;34.03;;;25.17;;
64712;SDS011;51140;45.340;5.980;2023-09-19T08:28:23;21.85;;;13.77;;
64712;SDS011;51140;45.340;5.980;2023-09-19T08:30:49;19.27;;;12.27;;
64712;SDS011;51140;45.340;5.980;2023-09-19T08:33:16;14.43;;;9.55;;
64712;SDS011;51140;45.340;5.980;2023-09-19T08:35:41;17.08;;;11.18;;
64712;SDS011;51140;45.340;5.980;2023-09-19T08:38:07;11.40;;;7.22;;
64712;SDS011;51140;45.340;5.980;2023-09-19T08:40:36;13.23;;;5.60;;
64712;SDS011;51140;45.340;5.980;2023-09-19T08:43:04;14.18;;;5.30;;
64712;SDS011;51140;45.340;5.980;2023-09-19T08:45:32;9.65;;;5.05;;
64712;SDS011;51140;45.340;5.980;2023-09-19T08:50:49;12.07;;;5.90;;
64712;SDS011;51140;45.340;5.980;2023-09-19T08:53:27;13.32;;;6.90;;
64712;SDS011;51140;45.340;5.980;2023-09-19T08:56:08;13.70;;;7.30;;
64712;SDS011;51140;45.340;5.980;2023-09-19T08:58:38;12.73;;;9.77;;
64712;SDS011;51140;45.340;5.980;2023-09-19T09:01:28;12.82;;;7.25;;
64712;SDS011;51140;45.340;5.980;2023-09-19T09:03:54;15.65;;;10.35;;
64712;SDS011;51140;45.340;5.980;2023-09-19T09:06:21;12.60;;;9.15;;
64712;SDS011;51140;45.340;5.980;2023-09-19T09:08:48;14.00;;;9.15;;
64712;SDS011;51140;45.340;5.980;2023-09-19T09:11:15;14.23;;;9.63;;
64712;SDS011;51140;45.340;5.980;2023-09-19T09:13:42;17.58;;;9.88;;
64712;SDS011;51140;45.340;5.980;2023-09-19T09:16:09;12.75;;;9.60;;
64712;SDS011;51140;45.340;5.980;2023-09-19T09:18:35;10.98;;;6.15;;
64712;SDS011;51140;45.340;5.980;2023-09-19T09:21:01;10.40;;;5.45;;
64712;SDS011;51140;45.340;5.980;2023-09-19T09:23:27;9.32;;;5.25;;
64712;SDS011;51140;45.340;5.980;2023-09-19T09:25:57;14.82;;;5.35;;
64712;SDS011;51140;45.340;5.980;2023-09-19T09:28:27;12.70;;;7.70;;
64712;SDS011;51140;45.340;5.980;2023-09-19T09:30:54;13.02;;;6.45;;
64712;SDS011;51140;45.340;5.980;2023-09-19T09:33:20;14.50;;;4.95;;
64712;SDS011;51140;45.340;5.980;2023-09-19T09:38:21;6.88;;;2.92;;
64712;SDS011;51140;45.340;5.980;2023-09-19T09:40:52;6.20;;;2.72;;
64712;SDS011;51140;45.340;5.980;2023-09-19T09:43:32;6.33;;;2.70;;
64712;SDS011;51140;45.340;5.980;2023-09-19T09:46:11;6.18;;;3.13;;
64712;SDS011;51140;45.340;5.980;2023-09-19T09:49:07;7.70;;;3.20;;
64712;SDS011;51140;45.340;5.980;2023-09-19T09:51:44;8.15;;;3.08;;
64712;SDS011;51140;45.340;5.980;2023-09-19T09:54:22;9.40;;;2.70;;
64712;SDS011;51140;45.340;5.980;2023-09-19T09:56:56;5.45;;;2.85;;
64712;SDS011;51140;45.340;5.980;2023-09-19T10:02:08;6.88;;;2.47;;
64712;SDS011;51140;45.340;5.980;2023-09-19T10:04:38;6.20;;;2.83;;
64712;SDS011;51140;45.340;5.980;2023-09-19T10:07:26;6.78;;;2.65;;
64712;SDS011;51140;45.340;5.980;2023-09-19T10:09:53;5.13;;;2.65;;
64712;SDS011;51140;45.340;5.980;2023-09-19T10:12:24;5.15;;;2.50;;
64712;SDS011;51140;45.340;5.980;2023-09-19T10:14:52;5.72;;;2.38;;
64712;SDS011;51140;45.340;5.980;2023-09-19T10:17:18;5.72;;;2.10;;
64712;SDS011;51140;45.340;5.980;2023-09-19T10:19:55;5.75;;;2.20;;
64712;SDS011;51140;45.340;5.980;2023-09-19T10:22:27;3.90;;;1.73;;
64712;SDS011;51140;45.340;5.980;2023-09-19T10:24:56;3.47;;;1.80;;
64712;SDS011;51140;45.340;5.980;2023-09-19T10:27:25;4.10;;;2.00;;
64712;SDS011;51140;45.340;5.980;2023-09-19T10:29:51;6.28;;;1.63;;
64712;SDS011;51140;45.340;5.980;2023-09-19T10:32:22;4.03;;;1.23;;
64712;SDS011;51140;45.340;5.980;2023-09-19T10:34:48;5.85;;;1.70;;
64712;SDS011;51140;45.340;5.980;2023-09-19T10:37:18;3.22;;;1.60;;
64712;SDS011;51140;45.340;5.980;2023-09-19T10:39:47;4.28;;;1.70;;
64712;SDS011;51140;45.340;5.980;2023-09-19T10:42:16;4.13;;;1.45;;
64712;SDS011;51140;45.340;5.980;2023-09-19T10:44:45;4.75;;;1.52;;
64712;SDS011;51140;45.340;5.980;2023-09-19T10:47:12;4.53;;;1.60;;
64712;SDS011;51140;45.340;5.980;2023-09-19T10:49:44;4.28;;;1.67;;
64712;SDS011;51140;45.340;5.980;2023-09-19T10:52:18;3.47;;;1.42;;
64712;SDS011;51140;45.340;5.980;2023-09-19T10:54:50;3.88;;;1.55;;
64712;SDS011;51140;45.340;5.980;2023-09-19T10:57:20;4.78;;;1.60;;
64712;SDS011;51140;45.340;5.980;2023-09-19T11:00:02;5.20;;;1.50;;
64712;SDS011;51140;45.340;5.980;2023-09-19T11:03:05;3.72;;;1.17;;
64712;SDS011;51140;45.340;5.980;2023-09-19T11:05:34;2.92;;;1.40;;
64712;SDS011;51140;45.340;5.980;2023-09-19T11:08:00;4.13;;;1.48;;
64712;SDS011;51140;45.340;5.980;2023-09-19T11:10:47;2.67;;;1.30;;
64712;SDS011;51140;45.340;5.980;2023-09-19T11:26:41;3.55;;;1.20;;
64712;SDS011;51140;45.340;5.980;2023-09-19T11:29:27;5.15;;;1.08;;
64712;SDS011;51140;45.340;5.980;2023-09-19T11:31:54;3.40;;;1.33;;
64712;SDS011;51140;45.340;5.980;2023-09-19T11:39:37;2.55;;;1.00;;
64712;SDS011;51140;45.340;5.980;2023-09-19T11:46:04;4.18;;;0.90;;
64712;SDS011;51140;45.340;5.980;2023-09-19T11:48:15;2.58;;;1.00;;
64712;SDS011;51140;45.340;5.980;2023-09-19T11:50:43;2.95;;;0.90;;
64712;SDS011;51140;45.340;5.980;2023-09-19T11:53:13;3.00;;;1.10;;
64712;SDS011;51140;45.340;5.980;2023-09-19T11:55:42;3.65;;;1.10;;
64712;SDS011;51140;45.340;5.980;2023-09-19T11:58:17;2.78;;;1.00;;
64712;SDS011;51140;45.340;5.980;2023-09-19T12:00:44;2.03;;;0.90;;
64712;SDS011;51140;45.340;5.980;2023-09-19T12:03:11;2.95;;;1.10;;
64712;SDS011;51140;45.340;5.980;2023-09-19T12:05:39;1.73;;;0.98;;
64712;SDS011;51140;45.340;5.980;2023-09-19T12:08:05;3.80;;;1.20;;
64712;SDS011;51140;45.340;5.980;2023-09-19T12:10:44;3.10;;;1.02;;
64712;SDS011;51140;45.340;5.980;2023-09-19T12:13:15;4.53;;;1.10;;
64712;SDS011;51140;45.340;5.980;2023-09-19T12:15:41;2.00;;;0.95;;
64712;SDS011;51140;45.340;5.980;2023-09-19T12:18:10;3.03;;;0.90;;
64712;SDS011;51140;45.340;5.980;2023-09-19T12:20:50;1.73;;;0.80;;
64712;SDS011;51140;45.340;5.980;2023-09-19T12:23:17;3.65;;;0.90;;
64712;SDS011;51140;45.340;5.980;2023-09-19T12:25:43;1.88;;;0.80;;
64712;SDS011;51140;45.340;5.980;2023-09-19T12:28:11;2.65;;;0.80;;
64712;SDS011;51140;45.340;5.980;2023-09-19T12:30:37;2.78;;;1.02;;
64712;SDS011;51140;45.340;5.980;2023-09-19T12:33:13;3.60;;;1.15;;
64712;SDS011;51140;45.340;5.980;2023-09-19T12:35:44;3.00;;;1.05;;
64712;SDS011;51140;45.340;5.980;2023-09-19T12:38:10;2.08;;;0.88;;
64712;SDS011;51140;45.340;5.980;2023-09-19T12:40:37;3.00;;;0.82;;
64712;SDS011;51140;45.340;5.980;2023-09-19T12:43:03;10.23;;;1.83;;
64712;SDS011;51140;45.340;5.980;2023-09-19T12:45:30;2.03;;;0.80;;
64712;SDS011;51140;45.340;5.980;2023-09-19T12:51:04;4.00;;;1.35;;
64712;SDS011;51140;45.340;5.980;2023-09-19T12:53:38;2.17;;;1.00;;
64712;SDS011;51140;45.340;5.980;2023-09-19T12:56:07;3.80;;;1.10;;
64712;SDS011;51140;45.340;5.980;2023-09-19T12:58:47;3.83;;;1.25;;
64712;SDS011;51140;45.340;5.980;2023-09-19T13:01:20;2.40;;;0.95;;
64712;SDS011;51140;45.340;5.980;2023-09-19T13:04:09;3.35;;;1.10;;
64712;SDS011;51140;45.340;5.980;2023-09-19T13:06:37;2.20;;;0.90;;
64712;SDS011;51140;45.340;5.980;2023-09-19T13:09:10;4.75;;;0.93;;
64712;SDS011;51140;45.340;5.980;2023-09-19T13:11:36;3.58;;;1.10;;
64712;SDS011;51140;45.340;5.980;2023-09-19T13:14:14;2.90;;;0.70;;
64712;SDS011;51140;45.340;5.980;2023-09-19T13:16:53;2.05;;;0.65;;
64712;SDS011;51140;45.340;5.980;2023-09-19T13:25:01;2.45;;;0.85;;
64712;SDS011;51140;45.340;5.980;2023-09-19T13:27:29;2.80;;;1.00;;
64712;SDS011;51140;45.340;5.980;2023-09-19T13:29:55;2.90;;;0.90;;
64712;SDS011;51140;45.340;5.980;2023-09-19T13:32:20;2.17;;;0.80;;
64712;SDS011;51140;45.340;5.980;2023-09-19T13:34:46;2.15;;;0.80;;
64712;SDS011;51140;45.340;5.980;2023-09-19T13:37:11;3.60;;;0.70;;
64712;SDS011;51140;45.340;5.980;2023-09-19T13:39:38;1.77;;;0.75;;
64712;SDS011;51140;45.340;5.980;2023-09-19T13:42:08;2.95;;;0.98;;
64712;SDS011;51140;45.340;5.980;2023-09-19T13:44:36;2.50;;;0.90;;
64712;SDS011;51140;45.340;5.980;2023-09-19T13:47:03;3.67;;;1.10;;
64712;SDS011;51140;45.340;5.980;2023-09-19T13:49:34;2.97;;;0.82;;
64712;SDS011;51140;45.340;5.980;2023-09-19T13:52:00;2.03;;;0.80;;
64712;SDS011;51140;45.340;5.980;2023-09-19T13:54:28;3.03;;;0.80;;
64712;SDS011;51140;45.340;5.980;2023-09-19T13:56:53;7.38;;;0.90;;
64712;SDS011;51140;45.340;5.980;2023-09-19T13:59:19;3.75;;;0.90;;
64712;SDS011;51140;45.340;5.980;2023-09-19T14:01:46;1.75;;;0.98;;
64712;SDS011;51140;45.340;5.980;2023-09-19T14:04:11;6.65;;;1.15;;
64712;SDS011;51140;45.340;5.980;2023-09-19T14:06:37;5.75;;;1.00;;
64712;SDS011;51140;45.340;5.980;2023-09-19T14:09:02;3.90;;;0.80;;
64712;SDS011;51140;45.340;5.980;2023-09-19T14:11:28;182.00;;;11.85;;
64712;SDS011;51140;45.340;5.980;2023-09-19T14:13:54;1.98;;;0.70;;
64712;SDS011;51140;45.340;5.980;2023-09-19T14:16:19;1.45;;;0.70;;
64712;SDS011;51140;45.340;5.980;2023-09-19T14:18:47;1.98;;;0.82;;
64712;SDS011;51140;45.340;5.980;2023-09-19T14:21:13;4.10;;;0.95;;
64712;SDS011;51140;45.340;5.980;2023-09-19T14:23:39;2.80;;;0.60;;
64712;SDS011;51140;45.340;5.980;2023-09-19T14:26:06;3.22;;;0.73;;
64712;SDS011;51140;45.340;5.980;2023-09-19T14:28:32;1.85;;;0.60;;
64712;SDS011;51140;45.340;5.980;2023-09-19T14:31:04;0.95;;;0.57;;
64712;SDS011;51140;45.340;5.980;2023-09-19T14:33:31;5.60;;;0.98;;
64712;SDS011;51140;45.340;5.980;2023-09-19T14:35:57;4.72;;;0.90;;
64712;SDS011;51140;45.340;5.980;2023-09-19T14:38:22;1.65;;;0.73;;
64712;SDS011;51140;45.340;5.980;2023-09-19T14:40:48;3.97;;;0.82;;
64712;SDS011;51140;45.340;5.980;2023-09-19T14:43:15;2.15;;;0.73;;
64712;SDS011;51140;45.340;5.980;2023-09-19T14:45:40;1.38;;;0.70;;
64712;SDS011;51140;45.340;5.980;2023-09-19T14:48:06;2.63;;;0.73;;
64712;SDS011;51140;45.340;5.980;2023-09-19T14:50:32;2.58;;;0.80;;
64712;SDS011;51140;45.340;5.980;2023-09-19T14:52:58;2.97;;;0.70;;
64712;SDS011;51140;45.340;5.980;2023-09-19T14:55:26;3.05;;;0.93;;
64712;SDS011;51140;45.340;5.980;2023-09-19T14:57:54;3.15;;;0.90;;
64712;SDS011;51140;45.340;5.980;2023-09-19T15:00:21;3.03;;;0.75;;
64712;SDS011;51140;45.340;5.980;2023-09-19T15:02:48;2.33;;;0.80;;
64712;SDS011;51140;45.340;5.980;2023-09-19T15:05:15;3.88;;;0.80;;
64712;SDS011;51140;45.340;5.980;2023-09-19T15:07:41;2.33;;;0.70;;
64712;SDS011;51140;45.340;5.980;2023-09-19T15:10:06;1.77;;;0.63;;
64712;SDS011;51140;45.340;5.980;2023-09-19T15:12:34;2.30;;;0.80;;
64712;SDS011;51140;45.340;5.980;2023-09-19T15:15:02;2.20;;;0.75;;
64712;SDS011;51140;45.340;5.980;2023-09-19T15:17:30;3.28;;;0.82;;
64712;SDS011;51140;45.340;5.980;2023-09-19T15:19:56;5.13;;;0.82;;
64712;SDS011;51140;45.340;5.980;2023-09-19T15:22:21;2.05;;;0.77;;
64712;SDS011;51140;45.340;5.980;2023-09-19T15:24:47;2.80;;;0.80;;
64712;SDS011;51140;45.340;5.980;2023-09-19T15:27:13;4.22;;;0.88;;
64712;SDS011;51140;45.340;5.980;2023-09-19T15:29:38;3.22;;;0.70;;
64712;SDS011;51140;45.340;5.980;2023-09-19T15:32:04;4.32;;;0.93;;
64712;SDS011;51140;45.340;5.980;2023-09-19T15:34:29;3.22;;;1.05;;
64712;SDS011;51140;45.340;5.980;2023-09-19T15:36:55;1.55;;;0.70;;
64712;SDS011;51140;45.340;5.980;2023-09-19T15:39:21;2.33;;;0.90;;
64712;SDS011;51140;45.340;5.980;2023-09-19T15:41:47;2.65;;;0.90;;
64712;SDS011;51140;45.340;5.980;2023-09-19T15:44:16;3.10;;;0.82;;
64712;SDS011;51140;45.340;5.980;2023-09-19T15:46:44;1.63;;;0.85;;
64712;SDS011;51140;45.340;5.980;2023-09-19T15:49:10;2.33;;;0.82;;